Time;durP1;ratioP1;P1;durP2;ratioP2;P2;SDS_P1;SDS_P2;PMS_P1;PMS_P2;Temp;Humidity;BMP_temperature;BMP_pressure;BME280_temperature;BME280_humidity;BME280_pressure;Samples;Min_cycle;Max_cycle;Signal;HPM_P1;HPM_P2
2022/01/04 00:00:13;;;;;;;30.40;23.48;;;;;;;;;;5088848;28;20212;-61
2022/01/04 00:02:39;;;;;;;34.85;24.50;;;;;;;;;;5075292;28;20077;-61
2022/01/04 00:05:05;;;;;;;31.02;23.77;;;;;;;;;;5058531;28;20119;-60
2022/01/04 00:07:31;;;;;;;36.17;26.90;;;;;;;;;;5072338;28;20028;-60
2022/01/04 00:09:57;;;;;;;34.78;26.13;;;;;;;;;;5071902;28;20039;-61
2022/01/04 00:15:07;;;;;;;36.80;30.50;;;;;;;;;;5073267;28;20117;-60
2022/01/04 00:17:32;;;;;;;37.03;29.42;;;;;;;;;;5071714;28;20059;-60
2022/01/04 00:19:58;;;;;;;38.30;28.92;;;;;;;;;;5073246;28;20020;-61
2022/01/04 00:22:23;;;;;;;41.08;29.35;;;;;;;;;;5073146;28;20036;-60
2022/01/04 00:24:49;;;;;;;39.17;28.77;;;;;;;;;;5055137;28;20047;-60
2022/01/04 00:27:14;;;;;;;37.58;26.88;;;;;;;;;;5073411;28;20162;-60
2022/01/04 00:29:40;;;;;;;38.47;27.42;;;;;;;;;;5055110;28;20029;-60
2022/01/04 00:32:05;;;;;;;40.38;30.27;;;;;;;;;;5038521;28;20458;-60
2022/01/04 00:34:31;;;;;;;41.88;31.10;;;;;;;;;;5073126;28;20039;-60
2022/01/04 00:36:56;;;;;;;40.38;30.10;;;;;;;;;;5072928;28;20030;-60
2022/01/04 00:39:22;;;;;;;39.22;28.85;;;;;;;;;;5073163;28;20476;-60
2022/01/04 00:41:47;;;;;;;40.95;29.67;;;;;;;;;;5055091;28;20043;-60
2022/01/04 00:44:13;;;;;;;37.38;28.63;;;;;;;;;;5055117;28;20031;-60
2022/01/04 00:46:38;;;;;;;36.35;29.23;;;;;;;;;;5072031;28;20036;-60
2022/01/04 00:49:10;;;;;;;36.55;29.10;;;;;;;;;;5072892;28;20388;-60
2022/01/04 00:51:36;;;;;;;42.15;28.83;;;;;;;;;;5038383;28;20113;-60
2022/01/04 00:54:02;;;;;;;38.72;29.05;;;;;;;;;;5072431;28;20025;-60
2022/01/04 00:56:27;;;;;;;32.95;27.80;;;;;;;;;;5038162;28;20043;-60
2022/01/04 00:58:53;;;;;;;34.80;28.33;;;;;;;;;;5072503;28;20048;-60
2022/01/04 01:01:19;;;;;;;34.33;27.75;;;;;;;;;;5054779;28;20032;-60
2022/01/04 01:03:44;;;;;;;35.60;28.00;;;;;;;;;;5072547;28;20464;-60
2022/01/04 01:06:10;;;;;;;37.63;27.13;;;;;;;;;;5072595;28;20076;-60
2022/01/04 01:08:35;;;;;;;35.75;26.00;;;;;;;;;;5071160;28;20047;-61
2022/01/04 01:11:01;;;;;;;34.63;26.75;;;;;;;;;;5054827;28;20059;-60
2022/01/04 01:13:26;;;;;;;34.55;26.83;;;;;;;;;;5072682;28;20107;-60
2022/01/04 01:15:52;;;;;;;34.03;25.90;;;;;;;;;;5072812;28;20115;-60
2022/01/04 01:18:18;;;;;;;32.70;25.95;;;;;;;;;;5072480;28;20083;-60
2022/01/04 01:20:45;;;;;;;34.47;26.52;;;;;;;;;;5071170;28;20044;-60
2022/01/04 01:23:11;;;;;;;35.05;26.42;;;;;;;;;;5054364;28;20075;-61
2022/01/04 01:25:36;;;;;;;35.95;26.85;;;;;;;;;;5054381;28;20036;-60
2022/01/04 01:28:02;;;;;;;37.05;26.42;;;;;;;;;;5071222;28;20033;-60
2022/01/04 01:30:28;;;;;;;33.83;27.02;;;;;;;;;;5072489;28;20062;-60
2022/01/04 01:32:54;;;;;;;31.10;25.25;;;;;;;;;;5072395;28;20372;-60
2022/01/04 01:35:19;;;;;;;34.80;24.65;;;;;;;;;;5072384;28;20120;-60
2022/01/04 01:37:45;;;;;;;37.13;26.67;;;;;;;;;;5072022;28;20067;-61
2022/01/04 01:40:10;;;;;;;41.20;26.98;;;;;;;;;;5054086;28;20102;-60
2022/01/04 01:42:36;;;;;;;35.30;25.75;;;;;;;;;;5071951;28;20039;-60
2022/01/04 01:45:01;;;;;;;34.08;25.52;;;;;;;;;;5072374;28;20063;-60
2022/01/04 01:47:27;;;;;;;34.60;24.95;;;;;;;;;;5072040;28;20466;-60
2022/01/04 01:49:52;;;;;;;34.70;24.63;;;;;;;;;;5072126;28;20036;-60
2022/01/04 01:52:18;;;;;;;34.22;23.48;;;;;;;;;;5071852;28;20029;-60
2022/01/04 01:54:43;;;;;;;30.35;23.55;;;;;;;;;;5071858;28;20103;-60
2022/01/04 01:57:08;;;;;;;32.35;24.30;;;;;;;;;;5072007;28;20024;-60
2022/01/04 01:59:34;;;;;;;31.55;24.27;;;;;;;;;;5071924;28;20165;-61
2022/01/04 02:01:59;;;;;;;30.27;23.63;;;;;;;;;;5071862;28;20043;-60
2022/01/04 02:04:25;;;;;;;33.15;23.27;;;;;;;;;;5053976;28;20039;-59
2022/01/04 02:06:50;;;;;;;33.72;24.60;;;;;;;;;;5071624;28;20034;-59
2022/01/04 02:09:16;;;;;;;35.05;23.27;;;;;;;;;;5071628;28;20369;-59
2022/01/04 02:11:42;;;;;;;34.33;23.88;;;;;;;;;;5071491;28;20125;-60
2022/01/04 02:14:07;;;;;;;31.90;23.95;;;;;;;;;;5071816;28;20032;-59
2022/01/04 02:16:33;;;;;;;32.53;23.90;;;;;;;;;;5071595;28;20044;-59
2022/01/04 02:18:59;;;;;;;33.53;23.45;;;;;;;;;;5071885;28;20461;-59
2022/01/04 02:21:25;;;;;;;30.77;23.75;;;;;;;;;;5053825;28;20507;-60
2022/01/04 02:23:50;;;;;;;32.08;24.73;;;;;;;;;;5071541;28;20033;-60
2022/01/04 02:26:15;;;;;;;30.90;23.27;;;;;;;;;;5071654;28;20016;-60
2022/01/04 02:28:42;;;;;;;33.00;24.85;;;;;;;;;;5053761;28;20070;-60
2022/01/04 02:31:07;;;;;;;43.50;25.40;;;;;;;;;;5071795;28;20037;-60
2022/01/04 02:33:33;;;;;;;27.08;23.77;;;;;;;;;;5071695;28;20039;-60
2022/01/04 02:35:58;;;;;;;29.25;24.10;;;;;;;;;;5086843;28;20431;-60
2022/01/04 02:38:23;;;;;;;31.38;24.63;;;;;;;;;;5091574;28;20375;-61
2022/01/04 02:40:49;;;;;;;30.75;24.98;;;;;;;;;;5095114;28;20024;-61
2022/01/04 02:43:14;;;;;;;32.88;25.55;;;;;;;;;;5076905;28;20399;-60
2022/01/04 02:45:40;;;;;;;31.65;25.17;;;;;;;;;;5095180;28;20043;-60
2022/01/04 02:48:05;;;;;;;32.55;24.63;;;;;;;;;;5095060;28;20032;-61
2022/01/04 02:50:30;;;;;;;34.65;26.08;;;;;;;;;;5076943;28;20032;-60
2022/01/04 02:52:56;;;;;;;33.20;25.38;;;;;;;;;;5076802;28;20051;-62
2022/01/04 02:55:22;;;;;;;32.15;25.83;;;;;;;;;;5076948;28;20039;-60
2022/01/04 02:57:49;;;;;;;33.40;25.83;;;;;;;;;;5077010;28;20387;-60
2022/01/04 03:00:16;;;;;;;33.80;26.23;;;;;;;;;;5094867;28;20032;-60
2022/01/04 03:02:42;;;;;;;30.50;25.38;;;;;;;;;;5059854;28;20034;-60
2022/01/04 03:05:08;;;;;;;39.83;25.95;;;;;;;;;;5094805;28;20395;-60
2022/01/04 03:07:38;;;;;;;33.33;24.90;;;;;;;;;;5094724;28;20028;-60
2022/01/04 03:10:05;;;;;;;34.75;25.30;;;;;;;;;;5060091;28;20032;-61
2022/01/04 03:12:30;;;;;;;34.97;26.98;;;;;;;;;;5059831;28;20506;-60
2022/01/04 03:14:56;;;;;;;34.08;26.85;;;;;;;;;;5094576;28;20032;-60
2022/01/04 03:17:21;;;;;;;33.88;26.00;;;;;;;;;;5094574;28;20039;-60
2022/01/04 03:19:46;;;;;;;31.90;24.35;;;;;;;;;;5094536;28;20042;-60
2022/01/04 03:22:12;;;;;;;34.38;25.63;;;;;;;;;;5094345;28;20036;-61
2022/01/04 03:24:37;;;;;;;32.45;24.02;;;;;;;;;;5059667;28;20035;-60
2022/01/04 03:27:03;;;;;;;29.15;22.92;;;;;;;;;;5094545;28;20076;-60
2022/01/04 03:29:28;;;;;;;32.22;23.35;;;;;;;;;;5094586;28;20035;-60
2022/01/04 03:31:57;;;;;;;27.95;22.55;;;;;;;;;;5094302;28;20031;-61
2022/01/04 03:34:22;;;;;;;28.52;21.90;;;;;;;;;;5093122;28;20032;-60
2022/01/04 03:36:48;;;;;;;30.10;23.08;;;;;;;;;;5094169;28;20375;-62
2022/01/04 03:39:14;;;;;;;25.63;20.48;;;;;;;;;;5076116;28;20060;-60
2022/01/04 03:41:40;;;;;;;24.00;20.17;;;;;;;;;;5094252;28;20461;-60
2022/01/04 03:44:07;;;;;;;24.85;18.80;;;;;;;;;;5059404;28;20429;-60
2022/01/04 03:46:33;;;;;;;22.65;18.02;;;;;;;;;;5076059;28;20044;-60
2022/01/04 03:48:58;;;;;;;22.67;16.80;;;;;;;;;;5094195;28;20156;-60
2022/01/04 03:51:24;;;;;;;21.17;16.98;;;;;;;;;;5093274;28;20051;-60
2022/01/04 03:53:49;;;;;;;19.92;15.95;;;;;;;;;;5093849;28;20496;-60
2022/01/04 03:56:15;;;;;;;27.35;16.25;;;;;;;;;;5094051;28;20059;-60
2022/01/04 03:58:41;;;;;;;20.27;15.18;;;;;;;;;;5093998;28;20145;-60
2022/01/04 04:01:06;;;;;;;20.13;15.98;;;;;;;;;;5093897;28;20024;-60
2022/01/04 04:03:32;;;;;;;23.90;16.52;;;;;;;;;;5041848;28;20044;-61
2022/01/04 04:05:58;;;;;;;23.27;16.23;;;;;;;;;;5069708;28;20075;-61
2022/01/04 04:08:23;;;;;;;23.55;17.60;;;;;;;;;;5069558;28;20067;-61
2022/01/04 04:10:48;;;;;;;23.17;16.33;;;;;;;;;;5069549;28;20043;-60
2022/01/04 04:13:14;;;;;;;21.25;16.50;;;;;;;;;;5069452;28;20112;-61
2022/01/04 04:15:43;;;;;;;22.50;15.82;;;;;;;;;;5070033;28;20440;-62
2022/01/04 04:18:09;;;;;;;22.58;16.17;;;;;;;;;;5035188;28;20479;-61
2022/01/04 04:20:36;;;;;;;21.52;15.80;;;;;;;;;;5067889;28;20048;-61
2022/01/04 04:23:02;;;;;;;23.15;15.88;;;;;;;;;;5051504;28;20024;-60
2022/01/04 04:25:27;;;;;;;24.42;15.77;;;;;;;;;;5069419;28;20035;-61
2022/01/04 04:27:53;;;;;;;19.27;14.27;;;;;;;;;;5069548;28;20093;-63
2022/01/04 04:30:18;;;;;;;19.10;13.65;;;;;;;;;;5069540;28;20153;-66
2022/01/04 04:32:43;;;;;;;17.38;13.40;;;;;;;;;;5069015;28;20081;-61
2022/01/04 04:35:09;;;;;;;22.65;13.32;;;;;;;;;;5069289;28;20361;-61
2022/01/04 04:37:34;;;;;;;16.58;12.98;;;;;;;;;;5069127;28;20028;-60
2022/01/04 04:40:00;;;;;;;16.00;12.70;;;;;;;;;;5051206;28;20040;-63
2022/01/04 04:42:25;;;;;;;18.13;11.98;;;;;;;;;;5069089;28;20052;-60
2022/01/04 04:44:51;;;;;;;20.73;13.13;;;;;;;;;;5068905;28;20480;-60
2022/01/04 04:47:16;;;;;;;17.27;12.23;;;;;;;;;;5068996;28;20090;-60
2022/01/04 04:49:42;;;;;;;15.73;12.18;;;;;;;;;;5068332;28;20053;-60
2022/01/04 04:52:07;;;;;;;16.38;11.63;;;;;;;;;;5068837;28;20025;-61
2022/01/04 04:54:33;;;;;;;18.77;11.77;;;;;;;;;;5050663;28;20551;-65
2022/01/04 04:56:58;;;;;;;16.35;11.68;;;;;;;;;;5069080;28;20048;-60
2022/01/04 04:59:24;;;;;;;17.05;11.93;;;;;;;;;;5068858;28;20068;-62
2022/01/04 05:01:49;;;;;;;14.23;10.63;;;;;;;;;;5068835;28;20039;-65
2022/01/04 05:04:15;;;;;;;16.15;11.10;;;;;;;;;;5050860;28;20036;-60
2022/01/04 05:06:40;;;;;;;14.20;9.82;;;;;;;;;;5050528;28;20473;-60
2022/01/04 05:09:05;;;;;;;16.30;10.88;;;;;;;;;;5068668;28;20093;-60
2022/01/04 05:11:32;;;;;;;17.35;11.10;;;;;;;;;;5068951;28;20032;-61
2022/01/04 05:13:57;;;;;;;16.80;10.85;;;;;;;;;;5050614;28;20040;-60
2022/01/04 05:16:23;;;;;;;16.38;11.60;;;;;;;;;;5068732;28;20120;-60
2022/01/04 05:18:48;;;;;;;13.93;10.45;;;;;;;;;;5068286;28;20039;-60
2022/01/04 05:21:13;;;;;;;15.40;10.65;;;;;;;;;;5068485;28;20071;-64
2022/01/04 05:23:39;;;;;;;18.15;11.55;;;;;;;;;;5068463;28;20040;-61
2022/01/04 05:26:04;;;;;;;13.30;10.07;;;;;;;;;;5050705;28;20032;-60
2022/01/04 05:28:29;;;;;;;15.15;10.65;;;;;;;;;;5050338;28;20047;-60
2022/01/04 05:30:55;;;;;;;15.50;10.10;;;;;;;;;;5068112;28;20119;-61
2022/01/04 05:33:20;;;;;;;14.30;11.38;;;;;;;;;;5068256;28;20036;-60
2022/01/04 05:35:47;;;;;;;20.10;10.85;;;;;;;;;;5076008;28;20032;-61
2022/01/04 05:38:13;;;;;;;13.25;10.30;;;;;;;;;;5088303;28;20134;-64
2022/01/04 05:40:38;;;;;;;16.30;10.45;;;;;;;;;;5070040;28;20111;-60
2022/01/04 05:43:04;;;;;;;15.40;10.55;;;;;;;;;;5088471;28;20113;-61
2022/01/04 05:45:30;;;;;;;16.00;9.57;;;;;;;;;;5088379;28;20146;-62
2022/01/04 05:47:56;;;;;;;15.40;10.55;;;;;;;;;;5087370;28;20044;-62
2022/01/04 05:50:21;;;;;;;13.77;9.70;;;;;;;;;;5070521;28;20036;-64
2022/01/04 05:52:47;;;;;;;14.50;9.32;;;;;;;;;;5088172;28;20085;-60
2022/01/04 05:55:12;;;;;;;14.43;9.93;;;;;;;;;;5069919;28;20062;-60
2022/01/04 05:57:38;;;;;;;13.02;10.38;;;;;;;;;;5088387;28;20024;-61
2022/01/04 06:00:04;;;;;;;14.20;9.70;;;;;;;;;;5088317;28;20090;-63
2022/01/04 06:02:34;;;;;;;15.98;10.02;;;;;;;;;;5087564;28;20067;-61
2022/01/04 06:05:00;;;;;;;15.57;10.52;;;;;;;;;;5069870;28;20063;-60
2022/01/04 06:07:25;;;;;;;14.82;9.75;;;;;;;;;;5070005;28;20055;-63
2022/01/04 06:09:53;;;;;;;14.93;9.70;;;;;;;;;;5088134;28;20085;-60
2022/01/04 06:15:00;;;;;;;14.70;9.32;;;;;;;;;;5088669;28;20039;-60
2022/01/04 06:17:25;;;;;;;;;;;;;;;;;;5092140;28;20031;-64
2022/01/04 06:19:51;;;;;;;20.23;10.25;;;;;;;;;;5091843;28;19912;-60
2022/01/04 06:22:16;;;;;;;16.25;8.80;;;;;;;;;;5073244;28;20844;-61
2022/01/04 06:24:42;;;;;;;13.65;9.25;;;;;;;;;;5091398;28;20043;-60
2022/01/04 06:27:08;;;;;;;15.70;9.18;;;;;;;;;;5091404;28;20055;-60
2022/01/04 06:29:34;;;;;;;17.33;9.25;;;;;;;;;;5073522;28;20035;-62
2022/01/04 06:31:59;;;;;;;17.58;8.80;;;;;;;;;;5091451;28;20100;-61
2022/01/04 06:34:25;;;;;;;17.05;9.25;;;;;;;;;;5091467;28;20090;-60
2022/01/04 06:36:50;;;;;;;18.65;10.63;;;;;;;;;;5090732;28;20031;-60
2022/01/04 06:39:15;;;;;;;20.00;10.07;;;;;;;;;;5073235;28;20043;-60
2022/01/04 06:41:41;;;;;;;23.70;9.82;;;;;;;;;;5091114;28;20491;-64
2022/01/04 06:44:07;;;;;;;16.98;9.38;;;;;;;;;;5089671;28;20113;-61
2022/01/04 06:46:32;;;;;;;16.33;9.75;;;;;;;;;;5091517;28;20157;-62
2022/01/04 06:48:58;;;;;;;13.63;9.60;;;;;;;;;;5072983;28;20036;-60
2022/01/04 06:51:23;;;;;;;13.73;8.57;;;;;;;;;;5090893;28;20498;-62
2022/01/04 06:53:49;;;;;;;18.33;9.32;;;;;;;;;;5072999;28;20139;-60
2022/01/04 06:56:14;;;;;;;18.08;9.73;;;;;;;;;;5091366;28;20107;-61
2022/01/04 06:58:40;;;;;;;21.83;10.25;;;;;;;;;;5090630;28;20028;-60
2022/01/04 07:01:05;;;;;;;15.40;10.70;;;;;;;;;;5091229;28;20487;-61
2022/01/04 07:03:31;;;;;;;16.45;9.60;;;;;;;;;;5090701;28;20040;-60
2022/01/04 07:05:56;;;;;;;19.50;11.00;;;;;;;;;;5072599;28;20063;-63
2022/01/04 07:08:22;;;;;;;20.38;10.55;;;;;;;;;;5056023;28;20109;-61
2022/01/04 07:10:48;;;;;;;18.83;10.10;;;;;;;;;;5090652;28;20031;-60
2022/01/04 07:13:13;;;;;;;16.50;9.82;;;;;;;;;;5072506;28;20063;-60
2022/01/04 07:15:39;;;;;;;18.17;11.07;;;;;;;;;;5091099;28;20491;-66
2022/01/04 07:18:04;;;;;;;18.15;10.35;;;;;;;;;;5091194;28;20028;-64
2022/01/04 07:20:30;;;;;;;19.38;10.32;;;;;;;;;;5090741;28;20105;-62
2022/01/04 07:22:55;;;;;;;31.08;11.10;;;;;;;;;;5090182;28;20024;-62
2022/01/04 07:25:21;;;;;;;17.73;11.07;;;;;;;;;;5089605;28;20044;-60
2022/01/04 07:27:46;;;;;;;19.23;11.35;;;;;;;;;;5090361;28;20040;-60
2022/01/04 07:30:12;;;;;;;19.67;11.32;;;;;;;;;;5090443;28;20115;-60
2022/01/04 07:32:37;;;;;;;16.42;10.55;;;;;;;;;;5090386;28;20055;-60
2022/01/04 07:35:03;;;;;;;14.40;10.35;;;;;;;;;;5084729;28;20473;-64
2022/01/04 07:37:28;;;;;;;13.80;10.77;;;;;;;;;;5069626;28;20388;-60
2022/01/04 07:39:54;;;;;;;18.15;9.30;;;;;;;;;;5068545;28;20064;-59
2022/01/04 07:42:19;;;;;;;13.48;8.73;;;;;;;;;;5070113;28;20064;-60
2022/01/04 07:44:44;;;;;;;12.55;8.73;;;;;;;;;;5069572;28;20111;-60
2022/01/04 07:47:10;;;;;;;14.45;8.68;;;;;;;;;;5069948;28;20055;-61
2022/01/04 07:49:35;;;;;;;14.82;9.32;;;;;;;;;;5069801;28;20463;-60
2022/01/04 07:52:01;;;;;;;18.75;9.68;;;;;;;;;;5069470;28;20029;-61
2022/01/04 07:54:26;;;;;;;17.88;11.05;;;;;;;;;;5078338;28;20089;-60
2022/01/04 07:56:53;;;;;;;17.60;11.32;;;;;;;;;;5090130;28;20024;-60
2022/01/04 07:59:20;;;;;;;14.82;11.93;;;;;;;;;;5071862;28;20161;-60
2022/01/04 08:01:45;;;;;;;19.27;11.85;;;;;;;;;;5071446;28;20058;-60
2022/01/04 08:04:11;;;;;;;15.50;11.73;;;;;;;;;;5089776;28;20047;-60
2022/01/04 08:06:36;;;;;;;15.73;11.13;;;;;;;;;;5089789;28;20036;-60
2022/01/04 08:09:02;;;;;;;13.98;9.95;;;;;;;;;;5071073;28;20060;-60
2022/01/04 08:11:27;;;;;;;19.38;10.93;;;;;;;;;;5054745;28;20488;-59
2022/01/04 08:13:53;;;;;;;17.73;10.05;;;;;;;;;;5089547;28;20040;-61
2022/01/04 08:16:18;;;;;;;18.70;9.15;;;;;;;;;;5071679;28;20499;-62
2022/01/04 08:18:44;;;;;;;13.27;9.57;;;;;;;;;;5088967;28;20052;-61
2022/01/04 08:21:09;;;;;;;12.32;8.75;;;;;;;;;;5055023;28;20084;-61
2022/01/04 08:23:35;;;;;;;16.10;9.18;;;;;;;;;;5071129;28;20399;-61
2022/01/04 08:26:01;;;;;;;18.13;9.43;;;;;;;;;;5071460;28;20031;-61
2022/01/04 08:28:26;;;;;;;13.25;9.13;;;;;;;;;;5070904;28;20130;-62
2022/01/04 08:30:52;;;;;;;14.10;9.35;;;;;;;;;;5089073;28;20028;-61
2022/01/04 08:33:17;;;;;;;12.60;7.57;;;;;;;;;;5089274;28;20388;-61
2022/01/04 08:35:43;;;;;;;14.30;8.65;;;;;;;;;;5089256;28;20364;-62
2022/01/04 08:38:09;;;;;;;14.23;7.50;;;;;;;;;;5087499;28;20035;-61
2022/01/04 08:40:34;;;;;;;12.00;7.15;;;;;;;;;;5088605;28;20087;-66
2022/01/04 08:43:00;;;;;;;13.68;7.10;;;;;;;;;;5089642;28;20036;-61
2022/01/04 08:45:26;;;;;;;11.70;6.45;;;;;;;;;;5088935;28;20406;-63
2022/01/04 08:47:52;;;;;;;9.95;6.15;;;;;;;;;;5054136;28;20509;-62
2022/01/04 08:50:17;;;;;;;9.82;5.75;;;;;;;;;;5070106;28;20036;-63
2022/01/04 08:52:43;;;;;;;10.82;5.63;;;;;;;;;;5087760;28;20062;-61
2022/01/04 08:55:08;;;;;;;9.38;6.00;;;;;;;;;;5088975;28;20387;-61
2022/01/04 08:57:34;;;;;;;12.25;5.60;;;;;;;;;;5089082;28;20024;-62
2022/01/04 08:59:59;;;;;;;9.38;5.82;;;;;;;;;;5088611;28;20470;-61
2022/01/04 09:02:25;;;;;;;11.93;6.63;;;;;;;;;;5088786;28;20059;-61
2022/01/04 09:04:51;;;;;;;8.30;5.50;;;;;;;;;;5088955;28;20028;-61
2022/01/04 09:07:17;;;;;;;8.68;5.00;;;;;;;;;;5088850;28;20414;-61
2022/01/04 09:09:42;;;;;;;10.27;5.20;;;;;;;;;;5088874;28;20052;-61
2022/01/04 09:12:08;;;;;;;7.38;4.63;;;;;;;;;;5088730;28;20055;-61
2022/01/04 09:14:44;;;;;;;8.02;5.38;;;;;;;;;;5088712;28;20024;-60
2022/01/04 09:19:54;;;;;;;12.75;5.07;;;;;;;;;;5088567;28;20039;-61
2022/01/04 09:22:19;;;;;;;10.05;5.45;;;;;;;;;;5088193;28;20032;-60
2022/01/04 09:24:45;;;;;;;11.50;5.25;;;;;;;;;;5088350;28;20048;-61
2022/01/04 09:27:10;;;;;;;9.73;6.22;;;;;;;;;;5088527;28;20047;-61
2022/01/04 09:29:36;;;;;;;11.63;6.03;;;;;;;;;;5088454;28;20032;-61
2022/01/04 09:32:02;;;;;;;7.35;4.80;;;;;;;;;;5088230;28;20051;-61
2022/01/04 09:34:28;;;;;;;10.75;6.85;;;;;;;;;;5088869;28;20039;-60
2022/01/04 09:36:56;;;;;;;15.48;8.88;;;;;;;;;;5087107;28;20039;-61
2022/01/04 09:39:22;;;;;;;10.68;5.80;;;;;;;;;;5088692;28;20044;-61
2022/01/04 09:41:49;;;;;;;7.20;4.30;;;;;;;;;;5086636;28;20169;-60
2022/01/04 09:44:14;;;;;;;11.02;5.70;;;;;;;;;;5088336;28;20060;-61
2022/01/04 09:46:40;;;;;;;8.52;5.18;;;;;;;;;;5088435;28;20110;-61
2022/01/04 09:49:07;;;;;;;11.75;5.18;;;;;;;;;;5089166;28;20040;-61
2022/01/04 09:51:35;;;;;;;9.15;4.70;;;;;;;;;;5091775;28;20582;-61
2022/01/04 09:54:01;;;;;;;7.68;3.83;;;;;;;;;;5092029;28;20024;-62
2022/01/04 09:56:26;;;;;;;10.45;4.45;;;;;;;;;;5091697;28;20486;-61
2022/01/04 09:58:52;;;;;;;8.27;3.58;;;;;;;;;;5090952;28;20032;-62
2022/01/04 10:01:25;;;;;;;7.40;4.60;;;;;;;;;;5091804;28;20035;-61
2022/01/04 10:03:50;;;;;;;8.45;4.03;;;;;;;;;;5090141;28;20395;-61
2022/01/04 10:06:16;;;;;;;6.88;3.67;;;;;;;;;;5091544;28;20031;-60
2022/01/04 10:08:50;;;;;;;6.13;3.88;;;;;;;;;;5091794;28;20042;-61
2022/01/04 10:11:16;;;;;;;6.05;3.47;;;;;;;;;;5091653;28;20036;-61
2022/01/04 10:13:42;;;;;;;7.70;3.40;;;;;;;;;;5091364;28;20031;-61
2022/01/04 10:16:16;;;;;;;9.80;3.40;;;;;;;;;;5091386;28;20034;-62
2022/01/04 10:18:45;;;;;;;6.63;4.30;;;;;;;;;;5090054;28;20042;-62
2022/01/04 10:21:12;;;;;;;10.00;5.47;;;;;;;;;;5091686;28;20368;-61
2022/01/04 10:23:47;;;;;;;8.90;5.10;;;;;;;;;;5090845;28;20042;-61
2022/01/04 10:26:13;;;;;;;8.38;5.18;;;;;;;;;;5087272;28;20036;-60
2022/01/04 10:28:40;;;;;;;14.20;6.90;;;;;;;;;;5088829;28;20040;-61
2022/01/04 10:31:10;;;;;;;7.90;3.70;;;;;;;;;;5091757;28;20495;-61
2022/01/04 10:33:36;;;;;;;6.43;4.03;;;;;;;;;;5090657;28;20078;-61
2022/01/04 10:36:12;;;;;;;5.22;3.15;;;;;;;;;;5091705;28;20463;-60
2022/01/04 10:38:42;;;;;;;6.05;3.55;;;;;;;;;;5091092;28;20024;-60
2022/01/04 10:41:10;;;;;;;7.88;3.90;;;;;;;;;;5088723;28;20111;-60
2022/01/04 10:43:40;;;;;;;8.88;3.67;;;;;;;;;;5070691;28;20020;-60
2022/01/04 10:46:07;;;;;;;6.13;4.00;;;;;;;;;;5088887;28;20403;-60
2022/01/04 10:48:39;;;;;;;9.05;3.90;;;;;;;;;;5087944;28;20130;-61
2022/01/04 10:51:11;;;;;;;6.32;3.15;;;;;;;;;;5087452;28;20065;-60
2022/01/04 10:53:41;;;;;;;8.10;3.10;;;;;;;;;;5087353;28;20055;-61
2022/01/04 10:56:06;;;;;;;;;;;;;;;;;;5087960;28;20757;-60
2022/01/04 10:58:37;;;;;;;4.70;3.38;;;;;;;;;;5089168;28;19962;-62
2022/01/04 11:01:07;;;;;;;6.78;3.58;;;;;;;;;;5088753;28;20083;-61
2022/01/04 11:03:33;;;;;;;7.72;4.03;;;;;;;;;;5088932;28;20494;-61
2022/01/04 11:06:06;;;;;;;5.90;3.13;;;;;;;;;;5090846;28;20024;-61
2022/01/04 11:08:32;;;;;;;7.47;4.20;;;;;;;;;;5090525;28;20050;-61
2022/01/04 11:10:58;;;;;;;8.85;4.68;;;;;;;;;;5091161;28;20028;-63
2022/01/04 11:13:25;;;;;;;12.68;7.32;;;;;;;;;;5090759;28;20149;-63
2022/01/04 11:15:50;;;;;;;11.70;7.90;;;;;;;;;;5055478;28;20437;-67
2022/01/04 11:18:16;;;;;;;11.50;6.38;;;;;;;;;;5072416;28;20036;-63
2022/01/04 11:20:42;;;;;;;9.05;6.15;;;;;;;;;;5090544;28;20135;-62
2022/01/04 11:23:08;;;;;;;4.55;3.05;;;;;;;;;;5090242;28;20164;-62
2022/01/04 11:25:33;;;;;;;5.47;2.75;;;;;;;;;;5055229;28;20391;-63
2022/01/04 11:28:03;;;;;;;5.50;3.17;;;;;;;;;;5072316;28;20036;-63
2022/01/04 11:30:32;;;;;;;4.97;3.00;;;;;;;;;;5072685;28;20352;-63
2022/01/04 11:33:02;;;;;;;7.33;3.07;;;;;;;;;;5090906;28;20066;-62
2022/01/04 11:35:29;;;;;;;5.38;2.65;;;;;;;;;;5071795;28;20430;-62
2022/01/04 11:37:56;;;;;;;7.28;3.10;;;;;;;;;;5055219;28;20035;-62
2022/01/04 11:40:25;;;;;;;6.82;3.20;;;;;;;;;;5055604;28;20438;-62
2022/01/04 11:42:52;;;;;;;9.02;3.53;;;;;;;;;;5071886;28;20057;-63
2022/01/04 11:45:39;;;;;;;5.18;2.38;;;;;;;;;;5055085;28;20024;-64
2022/01/04 11:48:23;;;;;;;7.03;2.85;;;;;;;;;;5089513;28;20052;-64
2022/01/04 11:50:49;;;;;;;6.25;2.45;;;;;;;;;;5090036;28;20426;-63
2022/01/04 11:53:15;;;;;;;3.67;2.08;;;;;;;;;;5090246;28;20036;-63
2022/01/04 11:55:47;;;;;;;2.97;1.90;;;;;;;;;;5090463;28;20375;-70
2022/01/04 11:58:17;;;;;;;7.75;2.35;;;;;;;;;;5090261;28;20049;-63
2022/01/04 12:00:46;;;;;;;8.38;3.28;;;;;;;;;;5089802;28;20066;-67
2022/01/04 12:03:18;;;;;;;4.55;2.13;;;;;;;;;;5053028;28;20089;-68
2022/01/04 12:05:56;;;;;;;9.38;2.03;;;;;;;;;;5087197;28;20039;-64
2022/01/04 12:08:24;;;;;;;5.45;2.00;;;;;;;;;;5089813;28;20036;-62
2022/01/04 12:10:54;;;;;;;6.95;1.83;;;;;;;;;;5071356;28;20064;-63
2022/01/04 12:13:20;;;;;;;4.53;1.73;;;;;;;;;;5070607;28;20028;-62
2022/01/04 12:15:46;;;;;;;8.13;2.10;;;;;;;;;;5070785;28;20036;-65
2022/01/04 12:18:25;;;;;;;4.38;2.00;;;;;;;;;;5090588;28;20212;-62
2022/01/04 12:20:52;;;;;;;4.75;1.92;;;;;;;;;;5089960;28;20032;-61
2022/01/04 12:23:42;;;;;;;5.25;2.65;;;;;;;;;;5072267;28;20039;-61
2022/01/04 12:26:16;;;;;;;5.65;2.00;;;;;;;;;;5075100;28;20036;-61
2022/01/04 12:28:58;;;;;;;5.30;1.75;;;;;;;;;;5055835;28;20097;-62
2022/01/04 12:31:24;;;;;;;4.00;1.90;;;;;;;;;;5071982;28;20024;-62
2022/01/04 12:33:51;;;;;;;7.13;2.30;;;;;;;;;;5089594;28;20423;-62
2022/01/04 12:36:35;;;;;;;3.88;1.90;;;;;;;;;;5089949;28;20078;-61
2022/01/04 12:39:02;;;;;;;4.72;2.00;;;;;;;;;;5089333;28;20039;-62
2022/01/04 12:41:30;;;;;;;4.35;1.75;;;;;;;;;;5089370;28;20028;-63
2022/01/04 12:43:57;;;;;;;4.88;2.40;;;;;;;;;;5054988;28;20040;-62
2022/01/04 12:46:34;;;;;;;5.25;1.90;;;;;;;;;;5054848;28;20130;-68
2022/01/04 12:49:01;;;;;;;6.65;1.80;;;;;;;;;;5071906;28;20446;-63
2022/01/04 12:51:35;;;;;;;4.05;1.88;;;;;;;;;;5071610;28;20032;-61
2022/01/04 12:54:03;;;;;;;3.28;2.10;;;;;;;;;;5089419;28;20032;-62
2022/01/04 12:56:29;;;;;;;5.25;2.25;;;;;;;;;;5055028;28;20134;-61
2022/01/04 12:58:56;;;;;;;6.63;2.40;;;;;;;;;;5071648;28;20072;-61
2022/01/04 13:01:27;;;;;;;3.63;1.77;;;;;;;;;;5071931;28;20358;-60
2022/01/04 13:03:53;;;;;;;8.15;2.50;;;;;;;;;;5089761;28;20576;-64
2022/01/04 13:06:21;;;;;;;6.03;3.00;;;;;;;;;;5072056;28;20502;-62
2022/01/04 13:08:54;;;;;;;7.75;2.63;;;;;;;;;;5055175;28;20047;-61
2022/01/04 13:11:20;;;;;;;6.22;3.00;;;;;;;;;;5055446;28;20035;-61
2022/01/04 13:13:55;;;;;;;9.00;3.10;;;;;;;;;;5071356;28;20077;-62
2022/01/04 13:16:21;;;;;;;8.88;3.40;;;;;;;;;;5055224;28;20040;-61
2022/01/04 13:18:48;;;;;;;9.48;3.70;;;;;;;;;;5071130;28;20506;-61
2022/01/04 13:21:14;;;;;;;11.65;4.30;;;;;;;;;;5088776;28;20159;-62
2022/01/04 13:23:40;;;;;;;8.63;5.03;;;;;;;;;;5071093;28;20052;-63
2022/01/04 13:26:06;;;;;;;14.93;5.35;;;;;;;;;;5070694;28;20070;-61
2022/01/04 13:28:33;;;;;;;5.55;3.30;;;;;;;;;;5088658;28;20048;-63
2022/01/04 13:30:58;;;;;;;7.95;4.00;;;;;;;;;;5053725;28;20114;-61
2022/01/04 13:33:24;;;;;;;14.68;6.20;;;;;;;;;;5088869;28;20612;-62
2022/01/04 13:35:50;;;;;;;11.35;4.50;;;;;;;;;;5088587;28;20498;-62
2022/01/04 13:38:17;;;;;;;8.07;4.10;;;;;;;;;;5087464;28;20529;-62
2022/01/04 13:40:43;;;;;;;15.38;5.50;;;;;;;;;;5070126;28;20058;-63
2022/01/04 13:43:14;;;;;;;8.95;4.30;;;;;;;;;;5053797;28;20573;-62
2022/01/04 13:45:44;;;;;;;9.02;3.88;;;;;;;;;;5070396;28;20491;-69
2022/01/04 13:48:10;;;;;;;26.27;15.40;;;;;;;;;;5070208;28;20036;-62
2022/01/04 13:50:37;;;;;;;10.55;5.55;;;;;;;;;;5088303;28;20028;-62
2022/01/04 13:53:05;;;;;;;6.88;3.88;;;;;;;;;;5070717;28;20081;-63
2022/01/04 13:55:49;;;;;;;9.52;3.13;;;;;;;;;;5070642;28;20048;-61
2022/01/04 13:58:30;;;;;;;11.02;3.75;;;;;;;;;;5070183;28;20476;-62
2022/01/04 14:00:55;;;;;;;8.45;4.03;;;;;;;;;;5070402;28;20043;-61
2022/01/04 14:03:30;;;;;;;6.95;3.63;;;;;;;;;;5088272;28;20399;-61
2022/01/04 14:05:56;;;;;;;7.80;3.83;;;;;;;;;;5088327;28;20036;-66
2022/01/04 14:08:42;;;;;;;8.95;3.83;;;;;;;;;;5069783;28;20491;-62
2022/01/04 14:11:07;;;;;;;9.18;3.92;;;;;;;;;;5088328;28;20039;-61
2022/01/04 14:13:37;;;;;;;15.45;4.68;;;;;;;;;;5085018;28;20036;-63
2022/01/04 14:16:02;;;;;;;;;;;;;;;;;;5070222;28;20031;-63
2022/01/04 14:18:27;;;;;;;7.23;3.40;;;;;;;;;;5069746;28;19912;-61
2022/01/04 14:20:56;;;;;;;10.15;3.58;;;;;;;;;;5087492;28;20274;-62
2022/01/04 14:23:31;;;;;;;6.20;3.20;;;;;;;;;;5086901;28;20039;-61
2022/01/04 14:26:00;;;;;;;6.95;3.25;;;;;;;;;;5069365;28;20028;-62
2022/01/04 14:28:26;;;;;;;13.07;3.28;;;;;;;;;;5087644;28;20036;-61
2022/01/04 14:30:51;;;;;;;8.30;4.25;;;;;;;;;;5087436;28;20090;-61
2022/01/04 14:33:17;;;;;;;13.25;3.85;;;;;;;;;;5087838;28;20040;-62